sensor_id;sensor_type;location;lat;lon;timestamp;P1;durP1;ratioP1;P2;durP2;ratioP2
3337;SDS011;1682;49.286;10.788;2022-12-13T00:00:26;37.27;;;17.83;;
3337;SDS011;1682;49.286;10.788;2022-12-13T00:02:54;33.07;;;23.67;;
3337;SDS011;1682;49.286;10.788;2022-12-13T00:05:21;27.70;;;16.83;;
3337;SDS011;1682;49.286;10.788;2022-12-13T00:07:49;27.20;;;17.23;;
3337;SDS011;1682;49.286;10.788;2022-12-13T00:10:16;31.00;;;16.43;;
3337;SDS011;1682;49.286;10.788;2022-12-13T00:12:43;24.03;;;14.83;;
3337;SDS011;1682;49.286;10.788;2022-12-13T00:15:10;29.53;;;15.87;;
3337;SDS011;1682;49.286;10.788;2022-12-13T00:17:39;30.40;;;16.63;;
3337;SDS011;1682;49.286;10.788;2022-12-13T00:20:06;26.20;;;15.40;;
3337;SDS011;1682;49.286;10.788;2022-12-13T00:22:34;25.57;;;15.63;;
3337;SDS011;1682;49.286;10.788;2022-12-13T00:25:01;25.83;;;14.60;;
3337;SDS011;1682;49.286;10.788;2022-12-13T00:27:28;26.13;;;14.07;;
3337;SDS011;1682;49.286;10.788;2022-12-13T00:29:55;22.03;;;13.90;;
3337;SDS011;1682;49.286;10.788;2022-12-13T00:32:23;25.50;;;16.13;;
3337;SDS011;1682;49.286;10.788;2022-12-13T00:34:51;29.57;;;19.43;;
3337;SDS011;1682;49.286;10.788;2022-12-13T00:37:18;28.30;;;15.37;;
3337;SDS011;1682;49.286;10.788;2022-12-13T00:39:45;25.53;;;17.00;;
3337;SDS011;1682;49.286;10.788;2022-12-13T00:42:13;29.37;;;15.03;;
3337;SDS011;1682;49.286;10.788;2022-12-13T00:44:40;25.30;;;14.80;;
3337;SDS011;1682;49.286;10.788;2022-12-13T00:47:07;28.03;;;18.10;;
3337;SDS011;1682;49.286;10.788;2022-12-13T00:49:35;24.63;;;17.27;;
3337;SDS011;1682;49.286;10.788;2022-12-13T00:52:03;31.20;;;15.10;;
3337;SDS011;1682;49.286;10.788;2022-12-13T00:54:31;23.47;;;15.23;;
3337;SDS011;1682;49.286;10.788;2022-12-13T00:56:58;22.40;;;14.40;;
3337;SDS011;1682;49.286;10.788;2022-12-13T00:59:25;25.07;;;14.57;;
3337;SDS011;1682;49.286;10.788;2022-12-13T01:01:53;23.10;;;13.93;;
3337;SDS011;1682;49.286;10.788;2022-12-13T01:04:20;23.17;;;15.10;;
3337;SDS011;1682;49.286;10.788;2022-12-13T01:06:48;27.33;;;17.77;;
3337;SDS011;1682;49.286;10.788;2022-12-13T01:09:17;24.00;;;16.97;;
3337;SDS011;1682;49.286;10.788;2022-12-13T01:11:45;26.63;;;16.83;;
3337;SDS011;1682;49.286;10.788;2022-12-13T01:14:13;23.00;;;15.40;;
3337;SDS011;1682;49.286;10.788;2022-12-13T01:16:40;25.73;;;15.53;;
3337;SDS011;1682;49.286;10.788;2022-12-13T01:19:07;21.37;;;13.37;;
3337;SDS011;1682;49.286;10.788;2022-12-13T01:21:34;21.90;;;16.03;;
3337;SDS011;1682;49.286;10.788;2022-12-13T01:24:02;25.50;;;16.63;;
3337;SDS011;1682;49.286;10.788;2022-12-13T01:26:32;31.90;;;17.50;;
3337;SDS011;1682;49.286;10.788;2022-12-13T01:28:59;36.97;;;16.53;;
3337;SDS011;1682;49.286;10.788;2022-12-13T01:31:29;32.27;;;17.20;;
3337;SDS011;1682;49.286;10.788;2022-12-13T01:33:56;34.27;;;18.07;;
3337;SDS011;1682;49.286;10.788;2022-12-13T01:36:23;28.77;;;17.43;;
3337;SDS011;1682;49.286;10.788;2022-12-13T01:38:51;30.40;;;15.93;;
3337;SDS011;1682;49.286;10.788;2022-12-13T01:41:19;24.40;;;15.77;;
3337;SDS011;1682;49.286;10.788;2022-12-13T01:43:52;27.30;;;18.07;;
3337;SDS011;1682;49.286;10.788;2022-12-13T01:46:19;25.77;;;16.03;;
3337;SDS011;1682;49.286;10.788;2022-12-13T01:48:48;29.50;;;15.43;;
3337;SDS011;1682;49.286;10.788;2022-12-13T01:51:20;29.57;;;15.60;;
3337;SDS011;1682;49.286;10.788;2022-12-13T01:53:50;22.90;;;14.37;;
3337;SDS011;1682;49.286;10.788;2022-12-13T01:56:19;22.93;;;14.17;;
3337;SDS011;1682;49.286;10.788;2022-12-13T01:58:46;21.77;;;14.63;;
3337;SDS011;1682;49.286;10.788;2022-12-13T02:01:16;21.67;;;14.13;;
3337;SDS011;1682;49.286;10.788;2022-12-13T02:03:44;27.90;;;16.27;;
3337;SDS011;1682;49.286;10.788;2022-12-13T02:06:13;22.70;;;14.93;;
3337;SDS011;1682;49.286;10.788;2022-12-13T02:08:43;22.53;;;15.97;;
3337;SDS011;1682;49.286;10.788;2022-12-13T02:11:11;28.63;;;14.10;;
3337;SDS011;1682;49.286;10.788;2022-12-13T02:13:39;23.47;;;15.13;;
3337;SDS011;1682;49.286;10.788;2022-12-13T02:16:07;20.70;;;14.80;;
3337;SDS011;1682;49.286;10.788;2022-12-13T02:18:42;23.47;;;14.60;;
3337;SDS011;1682;49.286;10.788;2022-12-13T02:21:13;25.23;;;15.53;;
3337;SDS011;1682;49.286;10.788;2022-12-13T02:24:06;27.07;;;13.90;;
3337;SDS011;1682;49.286;10.788;2022-12-13T02:26:45;29.50;;;15.67;;
3337;SDS011;1682;49.286;10.788;2022-12-13T02:29:21;22.00;;;14.80;;
3337;SDS011;1682;49.286;10.788;2022-12-13T02:31:52;26.60;;;17.93;;
3337;SDS011;1682;49.286;10.788;2022-12-13T02:34:22;25.43;;;18.23;;
3337;SDS011;1682;49.286;10.788;2022-12-13T02:36:53;30.77;;;17.37;;
3337;SDS011;1682;49.286;10.788;2022-12-13T02:39:24;23.20;;;12.80;;
3337;SDS011;1682;49.286;10.788;2022-12-13T02:41:56;24.70;;;14.50;;
3337;SDS011;1682;49.286;10.788;2022-12-13T02:44:26;23.30;;;15.30;;
3337;SDS011;1682;49.286;10.788;2022-12-13T02:46:57;23.63;;;14.90;;
3337;SDS011;1682;49.286;10.788;2022-12-13T02:49:28;22.70;;;14.17;;
3337;SDS011;1682;49.286;10.788;2022-12-13T02:51:56;26.77;;;16.13;;
3337;SDS011;1682;49.286;10.788;2022-12-13T02:54:23;30.80;;;15.63;;
3337;SDS011;1682;49.286;10.788;2022-12-13T02:56:53;32.17;;;14.30;;
3337;SDS011;1682;49.286;10.788;2022-12-13T02:59:21;20.73;;;14.07;;
3337;SDS011;1682;49.286;10.788;2022-12-13T03:01:52;24.70;;;15.50;;
3337;SDS011;1682;49.286;10.788;2022-12-13T03:04:26;30.43;;;14.57;;
3337;SDS011;1682;49.286;10.788;2022-12-13T03:07:00;28.47;;;15.20;;
3337;SDS011;1682;49.286;10.788;2022-12-13T03:09:32;19.40;;;14.60;;
3337;SDS011;1682;49.286;10.788;2022-12-13T03:12:05;22.90;;;14.97;;
3337;SDS011;1682;49.286;10.788;2022-12-13T03:14:55;24.17;;;14.13;;
3337;SDS011;1682;49.286;10.788;2022-12-13T03:17:25;31.50;;;15.50;;
3337;SDS011;1682;49.286;10.788;2022-12-13T03:19:54;25.80;;;14.67;;
3337;SDS011;1682;49.286;10.788;2022-12-13T03:22:21;25.57;;;16.17;;
3337;SDS011;1682;49.286;10.788;2022-12-13T03:24:48;30.90;;;15.33;;
3337;SDS011;1682;49.286;10.788;2022-12-13T03:27:17;29.87;;;18.70;;
3337;SDS011;1682;49.286;10.788;2022-12-13T03:29:44;25.70;;;17.30;;
3337;SDS011;1682;49.286;10.788;2022-12-13T03:32:11;28.37;;;16.10;;
3337;SDS011;1682;49.286;10.788;2022-12-13T03:34:38;28.60;;;15.67;;
3337;SDS011;1682;49.286;10.788;2022-12-13T03:37:07;28.70;;;15.70;;
3337;SDS011;1682;49.286;10.788;2022-12-13T03:39:34;23.10;;;14.83;;
3337;SDS011;1682;49.286;10.788;2022-12-13T03:42:02;22.03;;;15.27;;
3337;SDS011;1682;49.286;10.788;2022-12-13T03:44:29;26.27;;;15.90;;
3337;SDS011;1682;49.286;10.788;2022-12-13T03:46:56;24.30;;;16.13;;
3337;SDS011;1682;49.286;10.788;2022-12-13T03:49:23;19.03;;;13.70;;
3337;SDS011;1682;49.286;10.788;2022-12-13T03:51:51;27.30;;;15.43;;
3337;SDS011;1682;49.286;10.788;2022-12-13T03:54:19;25.77;;;14.30;;
3337;SDS011;1682;49.286;10.788;2022-12-13T03:56:47;26.37;;;15.40;;
3337;SDS011;1682;49.286;10.788;2022-12-13T03:59:14;21.03;;;14.00;;
3337;SDS011;1682;49.286;10.788;2022-12-13T04:01:41;30.63;;;15.90;;
3337;SDS011;1682;49.286;10.788;2022-12-13T04:04:08;22.37;;;14.30;;
3337;SDS011;1682;49.286;10.788;2022-12-13T04:06:35;24.17;;;15.60;;
3337;SDS011;1682;49.286;10.788;2022-12-13T04:09:03;23.77;;;14.27;;
3337;SDS011;1682;49.286;10.788;2022-12-13T04:11:31;23.67;;;15.43;;
3337;SDS011;1682;49.286;10.788;2022-12-13T04:14:16;26.03;;;15.27;;
3337;SDS011;1682;49.286;10.788;2022-12-13T04:16:43;32.67;;;18.07;;
3337;SDS011;1682;49.286;10.788;2022-12-13T04:19:11;23.83;;;15.30;;
3337;SDS011;1682;49.286;10.788;2022-12-13T04:21:38;23.03;;;15.90;;
3337;SDS011;1682;49.286;10.788;2022-12-13T04:24:05;25.00;;;15.10;;
3337;SDS011;1682;49.286;10.788;2022-12-13T04:26:34;22.47;;;14.40;;
3337;SDS011;1682;49.286;10.788;2022-12-13T04:29:01;25.80;;;15.70;;
3337;SDS011;1682;49.286;10.788;2022-12-13T04:31:28;24.23;;;15.10;;
3337;SDS011;1682;49.286;10.788;2022-12-13T04:33:55;22.67;;;15.50;;
3337;SDS011;1682;49.286;10.788;2022-12-13T04:36:22;27.43;;;16.83;;
3337;SDS011;1682;49.286;10.788;2022-12-13T04:38:50;28.97;;;16.30;;
3337;SDS011;1682;49.286;10.788;2022-12-13T04:41:17;23.13;;;14.43;;
3337;SDS011;1682;49.286;10.788;2022-12-13T04:43:50;32.63;;;18.40;;
3337;SDS011;1682;49.286;10.788;2022-12-13T04:46:17;25.70;;;15.10;;
3337;SDS011;1682;49.286;10.788;2022-12-13T04:48:45;31.13;;;18.17;;
3337;SDS011;1682;49.286;10.788;2022-12-13T04:51:12;25.37;;;16.67;;
3337;SDS011;1682;49.286;10.788;2022-12-13T04:53:39;33.13;;;18.30;;
3337;SDS011;1682;49.286;10.788;2022-12-13T04:56:06;25.33;;;17.70;;
3337;SDS011;1682;49.286;10.788;2022-12-13T04:58:34;32.37;;;18.50;;
3337;SDS011;1682;49.286;10.788;2022-12-13T05:01:02;33.27;;;18.60;;
3337;SDS011;1682;49.286;10.788;2022-12-13T05:03:31;32.27;;;19.50;;
3337;SDS011;1682;49.286;10.788;2022-12-13T05:06:02;29.03;;;18.00;;
3337;SDS011;1682;49.286;10.788;2022-12-13T05:08:29;35.23;;;19.63;;
3337;SDS011;1682;49.286;10.788;2022-12-13T05:10:57;37.63;;;19.43;;
3337;SDS011;1682;49.286;10.788;2022-12-13T05:13:24;23.20;;;17.30;;
3337;SDS011;1682;49.286;10.788;2022-12-13T05:15:54;28.67;;;18.07;;
3337;SDS011;1682;49.286;10.788;2022-12-13T05:18:23;29.70;;;18.03;;
3337;SDS011;1682;49.286;10.788;2022-12-13T05:20:50;26.87;;;18.73;;
3337;SDS011;1682;49.286;10.788;2022-12-13T05:23:18;25.73;;;18.53;;
3337;SDS011;1682;49.286;10.788;2022-12-13T05:25:45;32.03;;;17.60;;
3337;SDS011;1682;49.286;10.788;2022-12-13T05:28:12;26.87;;;17.67;;
3337;SDS011;1682;49.286;10.788;2022-12-13T05:30:40;24.57;;;17.13;;
3337;SDS011;1682;49.286;10.788;2022-12-13T05:33:07;22.00;;;15.83;;
3337;SDS011;1682;49.286;10.788;2022-12-13T05:35:36;30.80;;;18.20;;
3337;SDS011;1682;49.286;10.788;2022-12-13T05:38:04;31.70;;;20.37;;
3337;SDS011;1682;49.286;10.788;2022-12-13T05:40:31;28.27;;;17.77;;
3337;SDS011;1682;49.286;10.788;2022-12-13T05:42:58;28.70;;;18.00;;
3337;SDS011;1682;49.286;10.788;2022-12-13T05:45:26;26.43;;;17.10;;
3337;SDS011;1682;49.286;10.788;2022-12-13T05:47:53;27.77;;;16.30;;
3337;SDS011;1682;49.286;10.788;2022-12-13T05:50:20;25.77;;;17.93;;
3337;SDS011;1682;49.286;10.788;2022-12-13T05:52:49;25.83;;;15.70;;
3337;SDS011;1682;49.286;10.788;2022-12-13T05:55:16;29.73;;;18.00;;
3337;SDS011;1682;49.286;10.788;2022-12-13T05:57:43;29.67;;;20.10;;
3337;SDS011;1682;49.286;10.788;2022-12-13T06:00:11;24.20;;;17.57;;
3337;SDS011;1682;49.286;10.788;2022-12-13T06:02:39;23.73;;;15.53;;
3337;SDS011;1682;49.286;10.788;2022-12-13T06:05:07;23.20;;;15.37;;
3337;SDS011;1682;49.286;10.788;2022-12-13T06:07:35;30.17;;;17.93;;
3337;SDS011;1682;49.286;10.788;2022-12-13T06:10:04;35.43;;;19.80;;
3337;SDS011;1682;49.286;10.788;2022-12-13T06:12:32;51.30;;;28.13;;
3337;SDS011;1682;49.286;10.788;2022-12-13T06:15:08;49.93;;;28.27;;
3337;SDS011;1682;49.286;10.788;2022-12-13T06:17:36;48.50;;;27.00;;
3337;SDS011;1682;49.286;10.788;2022-12-13T06:20:03;57.20;;;28.13;;
3337;SDS011;1682;49.286;10.788;2022-12-13T06:22:31;55.20;;;31.40;;
3337;SDS011;1682;49.286;10.788;2022-12-13T06:24:58;70.20;;;36.40;;
3337;SDS011;1682;49.286;10.788;2022-12-13T06:27:27;47.13;;;28.10;;
3337;SDS011;1682;49.286;10.788;2022-12-13T06:29:54;49.60;;;28.67;;
3337;SDS011;1682;49.286;10.788;2022-12-13T06:32:21;71.77;;;39.77;;
3337;SDS011;1682;49.286;10.788;2022-12-13T06:34:49;56.77;;;36.47;;
3337;SDS011;1682;49.286;10.788;2022-12-13T06:37:16;41.53;;;28.23;;
3337;SDS011;1682;49.286;10.788;2022-12-13T06:39:44;48.83;;;27.90;;
3337;SDS011;1682;49.286;10.788;2022-12-13T06:42:13;42.23;;;27.97;;
3337;SDS011;1682;49.286;10.788;2022-12-13T06:44:42;44.43;;;30.30;;
3337;SDS011;1682;49.286;10.788;2022-12-13T06:47:09;50.10;;;29.87;;
3337;SDS011;1682;49.286;10.788;2022-12-13T06:49:36;57.13;;;31.27;;
3337;SDS011;1682;49.286;10.788;2022-12-13T06:52:04;65.67;;;37.70;;
3337;SDS011;1682;49.286;10.788;2022-12-13T06:54:31;59.03;;;38.13;;
3337;SDS011;1682;49.286;10.788;2022-12-13T06:56:58;58.27;;;36.43;;
3337;SDS011;1682;49.286;10.788;2022-12-13T06:59:26;117.70;;;64.27;;
3337;SDS011;1682;49.286;10.788;2022-12-13T07:01:54;118.87;;;62.63;;
3337;SDS011;1682;49.286;10.788;2022-12-13T07:04:22;73.43;;;40.00;;
3337;SDS011;1682;49.286;10.788;2022-12-13T07:06:49;60.60;;;35.20;;
3337;SDS011;1682;49.286;10.788;2022-12-13T07:09:16;34.87;;;21.80;;
3337;SDS011;1682;49.286;10.788;2022-12-13T07:11:43;44.87;;;23.57;;
3337;SDS011;1682;49.286;10.788;2022-12-13T07:14:11;238.07;;;103.50;;
3337;SDS011;1682;49.286;10.788;2022-12-13T07:16:38;167.97;;;74.27;;
3337;SDS011;1682;49.286;10.788;2022-12-13T07:19:06;98.73;;;45.03;;
3337;SDS011;1682;49.286;10.788;2022-12-13T07:21:33;73.20;;;43.97;;
3337;SDS011;1682;49.286;10.788;2022-12-13T07:24:02;91.00;;;51.07;;
3337;SDS011;1682;49.286;10.788;2022-12-13T07:26:29;79.80;;;45.07;;
3337;SDS011;1682;49.286;10.788;2022-12-13T07:28:57;73.53;;;35.53;;
3337;SDS011;1682;49.286;10.788;2022-12-13T07:31:24;93.03;;;48.00;;
3337;SDS011;1682;49.286;10.788;2022-12-13T07:33:54;66.97;;;40.13;;
3337;SDS011;1682;49.286;10.788;2022-12-13T07:36:23;55.50;;;37.00;;
3337;SDS011;1682;49.286;10.788;2022-12-13T07:38:50;45.07;;;31.80;;
3337;SDS011;1682;49.286;10.788;2022-12-13T07:41:18;46.43;;;31.50;;
3337;SDS011;1682;49.286;10.788;2022-12-13T07:43:46;48.43;;;28.20;;
3337;SDS011;1682;49.286;10.788;2022-12-13T07:46:13;46.33;;;31.03;;
3337;SDS011;1682;49.286;10.788;2022-12-13T07:48:40;48.50;;;27.70;;
3337;SDS011;1682;49.286;10.788;2022-12-13T07:51:08;31.63;;;21.60;;
3337;SDS011;1682;49.286;10.788;2022-12-13T07:53:38;30.30;;;20.47;;
3337;SDS011;1682;49.286;10.788;2022-12-13T07:56:07;40.23;;;22.37;;
3337;SDS011;1682;49.286;10.788;2022-12-13T07:58:34;26.50;;;17.20;;
3337;SDS011;1682;49.286;10.788;2022-12-13T08:01:02;28.97;;;18.90;;
3337;SDS011;1682;49.286;10.788;2022-12-13T08:03:30;32.17;;;20.90;;
3337;SDS011;1682;49.286;10.788;2022-12-13T08:05:58;24.20;;;17.27;;
3337;SDS011;1682;49.286;10.788;2022-12-13T08:08:25;29.83;;;19.40;;
3337;SDS011;1682;49.286;10.788;2022-12-13T08:10:54;34.47;;;19.90;;
3337;SDS011;1682;49.286;10.788;2022-12-13T08:13:21;34.63;;;21.00;;
3337;SDS011;1682;49.286;10.788;2022-12-13T08:15:48;30.40;;;21.57;;
3337;SDS011;1682;49.286;10.788;2022-12-13T08:18:16;34.13;;;20.80;;
3337;SDS011;1682;49.286;10.788;2022-12-13T08:20:45;28.20;;;20.77;;
3337;SDS011;1682;49.286;10.788;2022-12-13T08:23:12;30.23;;;17.90;;
3337;SDS011;1682;49.286;10.788;2022-12-13T08:25:39;35.00;;;17.13;;
3337;SDS011;1682;49.286;10.788;2022-12-13T08:28:08;27.20;;;17.30;;
3337;SDS011;1682;49.286;10.788;2022-12-13T08:30:35;30.77;;;18.13;;
3337;SDS011;1682;49.286;10.788;2022-12-13T08:33:03;29.30;;;19.40;;
3337;SDS011;1682;49.286;10.788;2022-12-13T08:35:30;27.40;;;18.30;;
3337;SDS011;1682;49.286;10.788;2022-12-13T08:37:58;27.00;;;17.53;;
3337;SDS011;1682;49.286;10.788;2022-12-13T08:40:25;32.43;;;18.17;;
3337;SDS011;1682;49.286;10.788;2022-12-13T08:42:53;28.23;;;18.10;;
3337;SDS011;1682;49.286;10.788;2022-12-13T08:45:22;36.50;;;18.53;;
3337;SDS011;1682;49.286;10.788;2022-12-13T08:47:51;26.53;;;17.97;;
3337;SDS011;1682;49.286;10.788;2022-12-13T08:50:18;31.60;;;18.73;;
3337;SDS011;1682;49.286;10.788;2022-12-13T08:52:45;25.13;;;17.43;;
3337;SDS011;1682;49.286;10.788;2022-12-13T08:55:13;35.53;;;18.33;;
3337;SDS011;1682;49.286;10.788;2022-12-13T08:57:41;30.47;;;18.10;;
3337;SDS011;1682;49.286;10.788;2022-12-13T09:00:09;28.97;;;16.13;;
3337;SDS011;1682;49.286;10.788;2022-12-13T09:02:38;27.83;;;18.13;;
3337;SDS011;1682;49.286;10.788;2022-12-13T09:05:06;31.50;;;17.70;;
3337;SDS011;1682;49.286;10.788;2022-12-13T09:07:34;35.83;;;21.67;;
3337;SDS011;1682;49.286;10.788;2022-12-13T09:10:03;27.93;;;18.43;;
3337;SDS011;1682;49.286;10.788;2022-12-13T09:12:31;25.57;;;17.37;;
3337;SDS011;1682;49.286;10.788;2022-12-13T09:14:58;27.47;;;17.50;;
3337;SDS011;1682;49.286;10.788;2022-12-13T09:17:25;31.83;;;17.67;;
3337;SDS011;1682;49.286;10.788;2022-12-13T09:19:54;28.20;;;17.13;;
3337;SDS011;1682;49.286;10.788;2022-12-13T09:22:21;24.13;;;15.67;;
3337;SDS011;1682;49.286;10.788;2022-12-13T09:24:48;24.40;;;16.47;;
3337;SDS011;1682;49.286;10.788;2022-12-13T09:27:15;26.10;;;14.10;;
3337;SDS011;1682;49.286;10.788;2022-12-13T09:29:43;27.07;;;16.73;;
3337;SDS011;1682;49.286;10.788;2022-12-13T09:32:11;29.10;;;16.67;;
3337;SDS011;1682;49.286;10.788;2022-12-13T09:34:38;24.23;;;14.80;;
3337;SDS011;1682;49.286;10.788;2022-12-13T09:37:07;26.03;;;14.30;;
3337;SDS011;1682;49.286;10.788;2022-12-13T09:39:36;20.90;;;15.97;;
3337;SDS011;1682;49.286;10.788;2022-12-13T09:42:03;40.30;;;27.60;;
3337;SDS011;1682;49.286;10.788;2022-12-13T09:44:31;20.17;;;14.47;;
3337;SDS011;1682;49.286;10.788;2022-12-13T09:47:00;27.03;;;17.23;;
3337;SDS011;1682;49.286;10.788;2022-12-13T09:49:29;25.40;;;15.23;;
3337;SDS011;1682;49.286;10.788;2022-12-13T09:51:58;27.30;;;17.00;;
3337;SDS011;1682;49.286;10.788;2022-12-13T09:54:28;24.10;;;15.67;;
3337;SDS011;1682;49.286;10.788;2022-12-13T09:56:56;30.27;;;17.30;;
3337;SDS011;1682;49.286;10.788;2022-12-13T09:59:25;24.93;;;17.87;;
3337;SDS011;1682;49.286;10.788;2022-12-13T10:01:53;29.90;;;15.87;;
3337;SDS011;1682;49.286;10.788;2022-12-13T10:04:21;38.97;;;20.80;;
3337;SDS011;1682;49.286;10.788;2022-12-13T10:06:49;37.63;;;22.20;;
3337;SDS011;1682;49.286;10.788;2022-12-13T10:09:18;36.10;;;18.93;;
3337;SDS011;1682;49.286;10.788;2022-12-13T10:11:47;36.57;;;19.20;;
3337;SDS011;1682;49.286;10.788;2022-12-13T10:14:16;28.87;;;17.50;;
3337;SDS011;1682;49.286;10.788;2022-12-13T10:16:45;26.97;;;15.57;;
3337;SDS011;1682;49.286;10.788;2022-12-13T10:19:14;24.20;;;14.40;;
3337;SDS011;1682;49.286;10.788;2022-12-13T10:21:42;25.07;;;13.83;;
3337;SDS011;1682;49.286;10.788;2022-12-13T10:24:12;20.33;;;14.30;;
3337;SDS011;1682;49.286;10.788;2022-12-13T10:26:44;22.90;;;13.80;;
3337;SDS011;1682;49.286;10.788;2022-12-13T10:29:13;19.77;;;11.30;;
3337;SDS011;1682;49.286;10.788;2022-12-13T10:31:40;19.43;;;12.93;;
3337;SDS011;1682;49.286;10.788;2022-12-13T10:36:54;24.07;;;13.73;;
3337;SDS011;1682;49.286;10.788;2022-12-13T10:39:37;21.60;;;13.73;;
3337;SDS011;1682;49.286;10.788;2022-12-13T10:42:08;29.03;;;13.73;;
3337;SDS011;1682;49.286;10.788;2022-12-13T10:44:39;17.43;;;11.50;;
3337;SDS011;1682;49.286;10.788;2022-12-13T10:47:15;19.50;;;12.73;;
3337;SDS011;1682;49.286;10.788;2022-12-13T10:49:51;21.73;;;11.53;;
3337;SDS011;1682;49.286;10.788;2022-12-13T10:52:19;19.33;;;12.60;;
3337;SDS011;1682;49.286;10.788;2022-12-13T10:54:47;12.53;;;8.53;;
3337;SDS011;1682;49.286;10.788;2022-12-13T10:57:15;17.07;;;11.67;;
3337;SDS011;1682;49.286;10.788;2022-12-13T10:59:44;20.57;;;12.87;;
3337;SDS011;1682;49.286;10.788;2022-12-13T11:02:29;21.60;;;12.17;;
3337;SDS011;1682;49.286;10.788;2022-12-13T11:04:57;23.03;;;12.83;;
3337;SDS011;1682;49.286;10.788;2022-12-13T11:07:26;16.23;;;11.80;;
3337;SDS011;1682;49.286;10.788;2022-12-13T11:09:54;19.43;;;11.23;;
3337;SDS011;1682;49.286;10.788;2022-12-13T11:12:22;13.53;;;10.67;;
3337;SDS011;1682;49.286;10.788;2022-12-13T11:14:53;22.33;;;11.20;;
3337;SDS011;1682;49.286;10.788;2022-12-13T11:17:22;16.07;;;9.23;;
3337;SDS011;1682;49.286;10.788;2022-12-13T11:19:50;25.50;;;11.20;;
3337;SDS011;1682;49.286;10.788;2022-12-13T11:22:18;14.97;;;10.37;;
3337;SDS011;1682;49.286;10.788;2022-12-13T11:24:48;17.20;;;10.53;;
3337;SDS011;1682;49.286;10.788;2022-12-13T11:30:09;14.37;;;7.80;;
3337;SDS011;1682;49.286;10.788;2022-12-13T11:32:41;10.83;;;7.80;;
3337;SDS011;1682;49.286;10.788;2022-12-13T11:35:13;11.90;;;8.50;;
3337;SDS011;1682;49.286;10.788;2022-12-13T11:37:44;18.33;;;8.10;;
3337;SDS011;1682;49.286;10.788;2022-12-13T11:40:16;17.70;;;7.50;;
3337;SDS011;1682;49.286;10.788;2022-12-13T11:42:46;12.73;;;8.90;;
3337;SDS011;1682;49.286;10.788;2022-12-13T11:45:16;16.63;;;10.67;;
3337;SDS011;1682;49.286;10.788;2022-12-13T11:47:46;14.83;;;9.97;;
3337;SDS011;1682;49.286;10.788;2022-12-13T11:50:15;19.50;;;10.20;;
3337;SDS011;1682;49.286;10.788;2022-12-13T11:52:44;16.10;;;9.27;;
3337;SDS011;1682;49.286;10.788;2022-12-13T11:55:14;20.50;;;11.47;;
3337;SDS011;1682;49.286;10.788;2022-12-13T11:57:43;12.67;;;7.97;;
3337;SDS011;1682;49.286;10.788;2022-12-13T12:00:20;13.93;;;7.20;;
3337;SDS011;1682;49.286;10.788;2022-12-13T12:02:52;23.20;;;10.60;;
3337;SDS011;1682;49.286;10.788;2022-12-13T12:05:26;25.70;;;13.30;;
3337;SDS011;1682;49.286;10.788;2022-12-13T12:07:55;15.40;;;8.10;;
3337;SDS011;1682;49.286;10.788;2022-12-13T12:10:26;17.77;;;11.20;;
3337;SDS011;1682;49.286;10.788;2022-12-13T12:12:55;21.03;;;13.10;;
3337;SDS011;1682;49.286;10.788;2022-12-13T12:15:27;11.60;;;7.83;;
3337;SDS011;1682;49.286;10.788;2022-12-13T12:17:55;14.20;;;9.70;;
3337;SDS011;1682;49.286;10.788;2022-12-13T12:20:25;9.30;;;6.70;;
3337;SDS011;1682;49.286;10.788;2022-12-13T12:22:59;11.00;;;6.80;;
3337;SDS011;1682;49.286;10.788;2022-12-13T12:25:29;15.73;;;6.90;;
3337;SDS011;1682;49.286;10.788;2022-12-13T12:28:01;11.57;;;8.30;;
3337;SDS011;1682;49.286;10.788;2022-12-13T12:30:34;9.73;;;7.70;;
3337;SDS011;1682;49.286;10.788;2022-12-13T12:33:07;23.43;;;12.57;;
3337;SDS011;1682;49.286;10.788;2022-12-13T12:38:23;9.20;;;5.50;;
3337;SDS011;1682;49.286;10.788;2022-12-13T12:40:57;8.97;;;6.57;;
3337;SDS011;1682;49.286;10.788;2022-12-13T12:43:29;19.43;;;8.90;;
3337;SDS011;1682;49.286;10.788;2022-12-13T12:46:01;12.90;;;7.77;;
3337;SDS011;1682;49.286;10.788;2022-12-13T12:48:35;13.60;;;7.67;;
3337;SDS011;1682;49.286;10.788;2022-12-13T12:51:07;12.43;;;10.07;;
3337;SDS011;1682;49.286;10.788;2022-12-13T12:53:37;10.33;;;5.90;;
3337;SDS011;1682;49.286;10.788;2022-12-13T12:56:11;10.10;;;7.40;;
3337;SDS011;1682;49.286;10.788;2022-12-13T12:58:45;9.50;;;6.00;;
3337;SDS011;1682;49.286;10.788;2022-12-13T13:01:18;16.90;;;10.57;;
3337;SDS011;1682;49.286;10.788;2022-12-13T13:03:47;12.63;;;6.97;;
3337;SDS011;1682;49.286;10.788;2022-12-13T13:06:17;10.27;;;7.20;;
3337;SDS011;1682;49.286;10.788;2022-12-13T13:11:16;13.50;;;7.10;;
3337;SDS011;1682;49.286;10.788;2022-12-13T13:13:44;9.10;;;6.77;;
3337;SDS011;1682;49.286;10.788;2022-12-13T13:16:30;8.57;;;7.73;;
3337;SDS011;1682;49.286;10.788;2022-12-13T13:18:57;18.13;;;6.97;;
3337;SDS011;1682;49.286;10.788;2022-12-13T13:21:25;12.57;;;7.50;;
3337;SDS011;1682;49.286;10.788;2022-12-13T13:24:03;7.93;;;5.30;;
3337;SDS011;1682;49.286;10.788;2022-12-13T13:26:31;12.50;;;8.07;;
3337;SDS011;1682;49.286;10.788;2022-12-13T13:31:54;6.97;;;5.80;;
3337;SDS011;1682;49.286;10.788;2022-12-13T13:34:22;9.50;;;6.17;;
3337;SDS011;1682;49.286;10.788;2022-12-13T13:36:49;11.43;;;6.60;;
3337;SDS011;1682;49.286;10.788;2022-12-13T13:39:17;11.67;;;5.57;;
3337;SDS011;1682;49.286;10.788;2022-12-13T13:41:55;7.20;;;5.77;;
3337;SDS011;1682;49.286;10.788;2022-12-13T13:47:37;9.90;;;5.73;;
3337;SDS011;1682;49.286;10.788;2022-12-13T13:50:15;9.53;;;8.30;;
3337;SDS011;1682;49.286;10.788;2022-12-13T13:52:50;5.03;;;4.63;;
3337;SDS011;1682;49.286;10.788;2022-12-13T13:55:40;10.80;;;6.60;;
3337;SDS011;1682;49.286;10.788;2022-12-13T14:01:10;8.37;;;6.90;;
3337;SDS011;1682;49.286;10.788;2022-12-13T14:04:00;8.73;;;7.07;;
3337;SDS011;1682;49.286;10.788;2022-12-13T14:06:40;8.93;;;7.30;;
3337;SDS011;1682;49.286;10.788;2022-12-13T14:17:51;11.20;;;7.03;;
3337;SDS011;1682;49.286;10.788;2022-12-13T14:23:12;8.87;;;7.63;;
3337;SDS011;1682;49.286;10.788;2022-12-13T14:28:30;22.30;;;13.07;;
3337;SDS011;1682;49.286;10.788;2022-12-13T14:30:59;11.17;;;10.07;;
3337;SDS011;1682;49.286;10.788;2022-12-13T14:33:26;9.83;;;7.07;;
3337;SDS011;1682;49.286;10.788;2022-12-13T14:35:55;11.73;;;7.70;;
3337;SDS011;1682;49.286;10.788;2022-12-13T14:38:25;11.10;;;7.60;;
3337;SDS011;1682;49.286;10.788;2022-12-13T14:40:53;8.73;;;7.17;;
3337;SDS011;1682;49.286;10.788;2022-12-13T14:43:24;8.33;;;7.47;;
3337;SDS011;1682;49.286;10.788;2022-12-13T14:45:52;8.10;;;5.47;;
3337;SDS011;1682;49.286;10.788;2022-12-13T14:48:20;14.10;;;9.10;;
3337;SDS011;1682;49.286;10.788;2022-12-13T14:50:48;11.33;;;6.80;;
3337;SDS011;1682;49.286;10.788;2022-12-13T14:53:20;13.50;;;7.33;;
3337;SDS011;1682;49.286;10.788;2022-12-13T14:58:33;16.30;;;9.60;;
3337;SDS011;1682;49.286;10.788;2022-12-13T15:01:01;17.03;;;10.10;;
3337;SDS011;1682;49.286;10.788;2022-12-13T15:03:29;15.77;;;10.63;;
3337;SDS011;1682;49.286;10.788;2022-12-13T15:05:57;14.40;;;10.60;;
3337;SDS011;1682;49.286;10.788;2022-12-13T15:08:25;12.83;;;7.60;;
3337;SDS011;1682;49.286;10.788;2022-12-13T15:10:53;16.57;;;9.03;;
3337;SDS011;1682;49.286;10.788;2022-12-13T15:13:23;17.50;;;8.83;;
3337;SDS011;1682;49.286;10.788;2022-12-13T15:15:52;16.90;;;8.87;;
3337;SDS011;1682;49.286;10.788;2022-12-13T15:18:21;12.80;;;7.80;;
3337;SDS011;1682;49.286;10.788;2022-12-13T15:20:50;11.90;;;7.10;;
3337;SDS011;1682;49.286;10.788;2022-12-13T15:23:20;14.63;;;8.30;;
3337;SDS011;1682;49.286;10.788;2022-12-13T15:25:51;12.97;;;8.67;;